Time;durP1;ratioP1;P1;durP2;ratioP2;P2;SDS_P1;SDS_P2;PMS_P1;PMS_P2;Temp;Humidity;BMP_temperature;BMP_pressure;BME280_temperature;BME280_humidity;BME280_pressure;Samples;Min_cycle;Max_cycle;Signal;HPM_P1;HPM_P2
2023/01/26 00:00:24;;;;;;;;;;;1.70;99.90;;;;;;4935148;29;20077;-86
2023/01/26 00:02:50;;;;;;;;;;;1.70;99.90;;;;;;4934614;29;19917;-86
2023/01/26 00:05:15;;;;;;;;;;;1.70;99.90;;;;;;4934996;29;19914;-86
2023/01/26 00:07:44;;;;;;;;;;;1.70;99.90;;;;;;4936999;29;19918;-86
2023/01/26 00:10:10;;;;;;;;;;;1.70;99.90;;;;;;4935443;29;19919;-86
2023/01/26 00:12:35;;;;;;;;;;;1.70;99.90;;;;;;4935625;29;19911;-86
2023/01/26 00:15:01;;;;;;;;;;;1.70;99.90;;;;;;4935681;29;19911;-86
2023/01/26 00:17:27;;;;;;;;;;;1.70;99.90;;;;;;4935631;29;19980;-86
2023/01/26 00:19:53;;;;;;;;;;;1.70;99.90;;;;;;4935673;29;19910;-86
2023/01/26 00:22:18;;;;;;;;;;;1.60;99.90;;;;;;4935346;29;19978;-86
2023/01/26 00:24:44;;;;;;;;;;;1.50;99.90;;;;;;4937220;29;19950;-85
2023/01/26 00:27:09;;;;;;;;;;;1.50;99.90;;;;;;4935777;29;19933;-86
2023/01/26 00:29:35;;;;;;;;;;;1.50;99.90;;;;;;4937683;29;19911;-86
2023/01/26 00:32:00;;;;;;;;;;;1.30;99.90;;;;;;4938579;29;19918;-85
2023/01/26 00:34:26;;;;;;;;;;;1.30;99.90;;;;;;4939909;29;19920;-86
2023/01/26 00:36:51;;;;;;;;;;;1.40;99.90;;;;;;4939075;29;19954;-86
2023/01/26 00:39:17;;;;;;;;;;;1.50;99.90;;;;;;4938699;29;19911;-86
2023/01/26 00:44:27;;;;;;;;;;;1.60;99.90;;;;;;4939831;29;20006;-85
2023/01/26 00:46:52;;;;;;;;;;;1.60;99.90;;;;;;4938395;29;19954;-86
2023/01/26 00:49:18;;;;;;;;;;;1.70;99.90;;;;;;4939813;29;19911;-86
2023/01/26 00:51:43;;;;;;;;;;;1.70;99.90;;;;;;4939328;29;19915;-86
2023/01/26 00:54:09;;;;;;;;;;;1.70;99.90;;;;;;4938545;29;20365;-86
2023/01/26 00:56:34;;;;;;;;;;;1.70;99.90;;;;;;4938308;29;19926;-87
2023/01/26 00:59:00;;;;;;;;;;;1.60;99.90;;;;;;4938405;29;19962;-86
2023/01/26 01:01:25;;;;;;;;;;;1.70;99.90;;;;;;4939302;29;19915;-86
2023/01/26 01:03:51;;;;;;;;;;;1.70;99.90;;;;;;4938593;29;19914;-84
2023/01/26 01:06:16;;;;;;;;;;;1.70;99.90;;;;;;4940052;29;20345;-86
2023/01/26 01:08:42;;;;;;;;;;;1.70;99.90;;;;;;4939152;29;19911;-84
2023/01/26 01:11:09;;;;;;;;;;;1.70;99.90;;;;;;4939388;29;19966;-85
2023/01/26 01:13:34;;;;;;;;;;;1.70;99.90;;;;;;4941004;29;19961;-85
2023/01/26 01:15:59;;;;;;;;;;;1.70;99.90;;;;;;4939458;29;20380;-84
2023/01/26 01:18:25;;;;;;;;;;;1.70;99.90;;;;;;4939326;29;19915;-85
2023/01/26 01:20:50;;;;;;;;;;;1.70;99.90;;;;;;4939363;29;20281;-85
2023/01/26 01:23:16;;;;;;;;;;;1.70;99.90;;;;;;4939499;29;19961;-85
2023/01/26 01:25:41;;;;;;;;;;;1.70;99.90;;;;;;4938764;29;19914;-84
2023/01/26 01:28:07;;;;;;;;;;;1.70;99.90;;;;;;4939543;29;19954;-84
2023/01/26 01:30:32;;;;;;;;;;;1.70;99.90;;;;;;4938844;29;20266;-85
2023/01/26 01:32:58;;;;;;;;;;;1.70;99.90;;;;;;4938833;29;19910;-84
2023/01/26 01:35:23;;;;;;;;;;;1.70;99.90;;;;;;4938584;29;20440;-85
2023/01/26 01:37:49;;;;;;;;;;;1.70;99.90;;;;;;4939245;29;19911;-85
2023/01/26 01:40:14;;;;;;;;;;;1.70;99.90;;;;;;4936903;29;19911;-84
2023/01/26 01:42:45;;;;;;;;;;;1.70;99.90;;;;;;4938688;29;19918;-85
2023/01/26 01:45:20;;;;;;;;;;;1.60;99.90;;;;;;4939154;29;19969;-86
2023/01/26 01:47:45;;;;;;;;;;;1.60;99.90;;;;;;4939131;29;19911;-84
2023/01/26 01:50:14;;;;;;;;;;;1.50;99.90;;;;;;4938767;29;20398;-84
2023/01/26 01:52:39;;;;;;;;;;;1.40;99.90;;;;;;4938332;29;20006;-86
2023/01/26 01:55:07;;;;;;;;;;;1.40;99.90;;;;;;4938958;29;20373;-85
2023/01/26 01:57:43;;;;;;;;;;;1.40;99.90;;;;;;4938877;29;19911;-84
2023/01/26 02:00:10;;;;;;;;;;;1.50;99.90;;;;;;4938165;29;20001;-85
2023/01/26 02:02:36;;;;;;;;;;;1.50;99.90;;;;;;4939458;29;19911;-86
2023/01/26 02:05:21;;;;;;;;;;;1.50;99.90;;;;;;4939152;29;19915;-85
2023/01/26 02:07:47;;;;;;;;;;;1.50;99.90;;;;;;4938389;29;20389;-85
2023/01/26 02:10:18;;;;;;;;;;;1.50;99.90;;;;;;4937625;29;19925;-87
2023/01/26 02:12:49;;;;;;;;;;;1.40;99.90;;;;;;4936824;29;19915;-87
2023/01/26 02:15:15;;;;;;;;;;;1.40;99.90;;;;;;4938179;29;19950;-87
2023/01/26 02:17:40;;;;;;;;;;;1.30;99.90;;;;;;4936864;29;19911;-86
2023/01/26 02:20:09;;;;;;;;;;;1.40;99.90;;;;;;4937074;29;19915;-86
2023/01/26 02:22:54;;;;;;;;;;;1.40;99.90;;;;;;4937163;29;19918;-86
2023/01/26 02:25:38;;;;;;;;;;;1.50;99.90;;;;;;4937379;29;19915;-86
2023/01/26 02:28:04;;;;;;;;;;;1.50;99.90;;;;;;4938479;29;20009;-86
2023/01/26 02:30:30;;;;;;;;;;;1.50;99.90;;;;;;4936952;29;19954;-85
2023/01/26 02:32:55;;;;;;;;;;;1.50;99.90;;;;;;4936937;29;20431;-86
2023/01/26 02:35:21;;;;;;;;;;;1.50;99.90;;;;;;4936955;29;19997;-87
2023/01/26 02:37:46;;;;;;;;;;;1.40;99.90;;;;;;4936754;29;19910;-87
2023/01/26 02:40:12;;;;;;;;;;;1.40;99.90;;;;;;4937084;29;19911;-87
2023/01/26 02:42:37;;;;;;;;;;;1.40;99.90;;;;;;4938193;29;19918;-87
2023/01/26 02:45:04;;;;;;;;;;;1.30;99.90;;;;;;4936858;29;19918;-86
2023/01/26 02:47:29;;;;;;;;;;;1.30;99.90;;;;;;4937040;29;20370;-86
2023/01/26 02:49:57;;;;;;;;;;;1.30;99.90;;;;;;4936770;29;19911;-85
2023/01/26 02:52:24;;;;;;;;;;;1.30;99.90;;;;;;4938079;29;20333;-87
2023/01/26 02:57:34;;;;;;;;;;;1.30;99.90;;;;;;4938440;29;19921;-85
2023/01/26 03:00:00;;;;;;;;;;;1.30;99.90;;;;;;4938151;29;20416;-86
2023/01/26 03:02:25;;;;;;;;;;;1.40;99.90;;;;;;4937785;29;20017;-86
2023/01/26 03:04:51;;;;;;;;;;;1.40;99.90;;;;;;4936350;29;19919;-86
2023/01/26 03:07:16;;;;;;;;;;;1.40;99.90;;;;;;4936541;29;19911;-86
2023/01/26 03:09:42;;;;;;;;;;;1.40;99.90;;;;;;4936771;29;19925;-86
2023/01/26 03:12:07;;;;;;;;;;;1.30;99.90;;;;;;4935887;29;20272;-86
2023/01/26 03:14:33;;;;;;;;;;;1.30;99.90;;;;;;4936343;29;19915;-85
2023/01/26 03:16:58;;;;;;;;;;;1.30;99.90;;;;;;4936467;29;19987;-87
2023/01/26 03:27:42;;;;;;;;;;;1.10;99.90;;;;;;4938554;29;19943;-86
2023/01/26 03:30:08;;;;;;;;;;;1.10;99.90;;;;;;4937455;29;19911;-87
2023/01/26 03:32:34;;;;;;;;;;;1.10;99.90;;;;;;4936058;29;19915;-85
2023/01/26 03:34:59;;;;;;;;;;;1.10;99.90;;;;;;4936305;29;20013;-86
2023/01/26 03:37:25;;;;;;;;;;;1.10;99.90;;;;;;4937864;29;19921;-87
2023/01/26 03:56:23;;;;;;;;;;;1.30;99.90;;;;;;4937782;29;19917;-86
2023/01/26 03:58:56;;;;;;;;;;;1.30;99.90;;;;;;4935894;29;19914;-87
2023/01/26 04:01:26;;;;;;;;;;;1.30;99.90;;;;;;4935664;29;19939;-86
2023/01/26 04:09:22;;;;;;;;;;;1.30;99.90;;;;;;4941376;29;19999;-85
2023/01/26 04:11:47;;;;;;;;;;;1.30;99.90;;;;;;4939229;29;19946;-87
2023/01/26 04:22:26;;;;;;;;;;;1.30;99.90;;;;;;4940916;29;20020;-86
2023/01/26 04:24:52;;;;;;;;;;;1.40;99.90;;;;;;4940842;29;19933;-87
2023/01/26 04:27:20;;;;;;;;;;;1.40;99.90;;;;;;4939319;29;19962;-86
2023/01/26 04:29:45;;;;;;;;;;;1.30;99.90;;;;;;4940777;29;20017;-86
2023/01/26 04:32:13;;;;;;;;;;;1.40;99.90;;;;;;4938795;29;19950;-86
2023/01/26 04:34:39;;;;;;;;;;;1.40;99.90;;;;;;4939452;29;19942;-86
2023/01/26 04:37:04;;;;;;;;;;;1.40;99.90;;;;;;4939419;29;20373;-87
2023/01/26 04:39:29;;;;;;;;;;;1.40;99.90;;;;;;4939429;29;20068;-86
2023/01/26 04:41:55;;;;;;;;;;;1.40;99.90;;;;;;4939017;29;19918;-86
2023/01/26 04:44:20;;;;;;;;;;;1.40;99.90;;;;;;4938834;29;19922;-85
2023/01/26 04:46:47;;;;;;;;;;;1.40;99.90;;;;;;4938785;29;19994;-87
2023/01/26 04:49:13;;;;;;;;;;;1.40;99.90;;;;;;4939228;29;20509;-87
2023/01/26 04:51:38;;;;;;;;;;;1.30;99.90;;;;;;4938677;29;19910;-87
2023/01/26 04:54:04;;;;;;;;;;;1.30;99.90;;;;;;4939059;29;19918;-87
2023/01/26 04:56:33;;;;;;;;;;;1.20;99.90;;;;;;4940263;29;19966;-86
2023/01/26 04:59:00;;;;;;;;;;;1.10;99.90;;;;;;4938863;29;20525;-86
2023/01/26 05:01:34;;;;;;;;;;;1.10;99.90;;;;;;4939112;29;19958;-86
2023/01/26 05:04:00;;;;;;;;;;;1.10;99.90;;;;;;4938763;29;20341;-85
2023/01/26 05:06:25;;;;;;;;;;;1.20;99.90;;;;;;4939124;29;19989;-86
2023/01/26 05:08:51;;;;;;;;;;;1.20;99.90;;;;;;4938324;29;20361;-87
2023/01/26 05:11:16;;;;;;;;;;;1.20;99.90;;;;;;4939170;29;19915;-86
2023/01/26 05:13:42;;;;;;;;;;;1.20;99.90;;;;;;4940286;29;19911;-85
2023/01/26 05:16:07;;;;;;;;;;;1.30;99.90;;;;;;4938076;29;19910;-87
2023/01/26 05:18:33;;;;;;;;;;;1.20;99.90;;;;;;4939912;29;19915;-86
2023/01/26 05:20:58;;;;;;;;;;;1.20;99.90;;;;;;4938226;29;20388;-87
2023/01/26 05:23:24;;;;;;;;;;;1.20;99.90;;;;;;4938243;29;19926;-85
2023/01/26 05:25:50;;;;;;;;;;;1.20;99.90;;;;;;4938582;29;19911;-87
2023/01/26 05:28:15;;;;;;;;;;;1.30;99.90;;;;;;4938553;29;19917;-85
2023/01/26 05:30:41;;;;;;;;;;;1.30;99.90;;;;;;4938141;29;19966;-85
2023/01/26 05:33:07;;;;;;;;;;;1.30;99.90;;;;;;4938646;29;19966;-85
2023/01/26 05:35:32;;;;;;;;;;;1.40;99.90;;;;;;4938057;29;20351;-85
2023/01/26 05:37:58;;;;;;;;;;;1.40;99.90;;;;;;4938507;29;19946;-87
2023/01/26 05:40:24;;;;;;;;;;;1.30;99.90;;;;;;4939516;29;20539;-87
2023/01/26 05:42:50;;;;;;;;;;;1.40;99.90;;;;;;4937895;29;19962;-87
2023/01/26 05:45:16;;;;;;;;;;;1.40;99.90;;;;;;4938337;29;19915;-86
2023/01/26 05:47:43;;;;;;;;;;;1.50;99.90;;;;;;4939804;29;20266;-86
2023/01/26 05:50:09;;;;;;;;;;;1.50;99.90;;;;;;4939195;29;19926;-87
2023/01/26 05:52:34;;;;;;;;;;;1.50;99.90;;;;;;4939020;29;19911;-87
2023/01/26 05:55:00;;;;;;;;;;;1.60;99.90;;;;;;4938020;29;19911;-86
2023/01/26 05:57:26;;;;;;;;;;;1.50;99.90;;;;;;4937841;29;19934;-87
2023/01/26 05:59:51;;;;;;;;;;;1.60;99.90;;;;;;4937552;29;19910;-86
2023/01/26 06:02:17;;;;;;;;;;;1.60;99.90;;;;;;4937477;29;19950;-85
2023/01/26 06:04:42;;;;;;;;;;;1.60;99.90;;;;;;4939194;29;19923;-86
2023/01/26 06:07:08;;;;;;;;;;;1.60;99.90;;;;;;4937938;29;20294;-86
2023/01/26 06:09:34;;;;;;;;;;;1.60;99.90;;;;;;4938332;29;19919;-87
2023/01/26 06:11:59;;;;;;;;;;;1.60;99.90;;;;;;4936475;29;19938;-85
2023/01/26 06:14:24;;;;;;;;;;;1.60;99.90;;;;;;4937878;29;19921;-87
2023/01/26 06:16:51;;;;;;;;;;;1.60;99.90;;;;;;4936907;29;19911;-86
2023/01/26 06:19:16;;;;;;;;;;;1.60;99.90;;;;;;4936582;29;20317;-86
2023/01/26 06:21:42;;;;;;;;;;;1.60;99.90;;;;;;4936342;29;19911;-87
2023/01/26 06:24:07;;;;;;;;;;;1.60;99.90;;;;;;4936602;29;20306;-87
2023/01/26 06:26:33;;;;;;;;;;;1.70;99.90;;;;;;4936509;29;19915;-86
2023/01/26 06:28:58;;;;;;;;;;;1.70;99.90;;;;;;4937026;29;20369;-86
2023/01/26 06:31:24;;;;;;;;;;;1.60;99.90;;;;;;4936447;29;20460;-87
2023/01/26 06:33:50;;;;;;;;;;;1.60;99.90;;;;;;4936176;29;19914;-86
2023/01/26 06:36:15;;;;;;;;;;;1.60;99.90;;;;;;4937769;29;20015;-87
2023/01/26 06:38:45;;;;;;;;;;;1.60;99.90;;;;;;4936862;29;19925;-87
2023/01/26 06:41:10;;;;;;;;;;;1.60;99.90;;;;;;4936696;29;19910;-85
2023/01/26 06:43:36;;;;;;;;;;;1.60;99.90;;;;;;4938193;29;19915;-86
2023/01/26 06:46:03;;;;;;;;;;;1.60;99.90;;;;;;4937080;29;19978;-87
2023/01/26 06:48:29;;;;;;;;;;;1.60;99.90;;;;;;4936217;29;19911;-86
2023/01/26 06:50:56;;;;;;;;;;;1.70;99.90;;;;;;4935902;29;19915;-87
2023/01/26 06:53:29;;;;;;;;;;;1.60;99.90;;;;;;4937100;29;19911;-87
2023/01/26 06:55:54;;;;;;;;;;;1.60;99.90;;;;;;4936344;29;20547;-87
2023/01/26 06:58:19;;;;;;;;;;;1.60;99.90;;;;;;4936224;29;19966;-86
2023/01/26 07:00:45;;;;;;;;;;;1.60;99.90;;;;;;4935842;29;19918;-86
2023/01/26 07:03:10;;;;;;;;;;;1.70;99.90;;;;;;4935566;29;20373;-87
2023/01/26 07:05:36;;;;;;;;;;;1.70;99.90;;;;;;4936282;29;19911;-86
2023/01/26 07:08:03;;;;;;;;;;;1.70;99.90;;;;;;4936434;29;19918;-86
2023/01/26 07:10:28;;;;;;;;;;;1.70;99.90;;;;;;4936268;29;19970;-86
2023/01/26 07:12:54;;;;;;;;;;;1.80;99.90;;;;;;4935766;29;19962;-86
2023/01/26 07:15:19;;;;;;;;;;;1.70;99.90;;;;;;4936161;29;19917;-86
2023/01/26 07:17:45;;;;;;;;;;;1.70;99.90;;;;;;4936007;29;19964;-84
2023/01/26 07:20:10;;;;;;;;;;;1.70;99.90;;;;;;4935913;29;19911;-85
2023/01/26 07:22:36;;;;;;;;;;;1.80;99.90;;;;;;4935813;29;19943;-87
2023/01/26 07:25:01;;;;;;;;;;;1.80;99.90;;;;;;4936015;29;19914;-86
2023/01/26 07:27:27;;;;;;;;;;;1.80;99.90;;;;;;4936329;29;20262;-86
2023/01/26 07:29:52;;;;;;;;;;;1.80;99.90;;;;;;4936038;29;19914;-87
2023/01/26 07:32:18;;;;;;;;;;;1.80;99.90;;;;;;4935310;29;19922;-85
2023/01/26 07:34:43;;;;;;;;;;;1.80;99.90;;;;;;4936848;29;20363;-87
2023/01/26 07:37:09;;;;;;;;;;;1.80;99.90;;;;;;4936194;29;19911;-87
2023/01/26 07:39:34;;;;;;;;;;;1.90;99.90;;;;;;4935920;29;19918;-88
2023/01/26 07:41:59;;;;;;;;;;;1.90;99.90;;;;;;4935344;29;19910;-87
2023/01/26 07:44:25;;;;;;;;;;;1.90;99.90;;;;;;4936062;29;20377;-86
2023/01/26 07:46:52;;;;;;;;;;;2.00;99.90;;;;;;4935457;29;19988;-86
2023/01/26 07:49:17;;;;;;;;;;;2.00;99.90;;;;;;4935911;29;20002;-86
2023/01/26 07:51:43;;;;;;;;;;;2.00;99.90;;;;;;4936240;29;19950;-86
2023/01/26 07:54:09;;;;;;;;;;;2.10;99.90;;;;;;4936744;29;19911;-86
2023/01/26 07:56:35;;;;;;;;;;;2.00;99.90;;;;;;4936313;29;19918;-87
2023/01/26 07:59:00;;;;;;;;;;;2.00;99.90;;;;;;4935516;29;19911;-85
2023/01/26 08:01:26;;;;;;;;;;;2.10;99.90;;;;;;4935525;29;19962;-87
2023/01/26 08:03:54;;;;;;;;;;;2.10;99.90;;;;;;4935760;29;19915;-87
2023/01/26 08:06:20;;;;;;;;;;;2.10;99.90;;;;;;4937162;29;19958;-87
2023/01/26 08:08:49;;;;;;;;;;;2.10;99.90;;;;;;4935199;29;19911;-87
2023/01/26 08:11:16;;;;;;;;;;;2.20;99.90;;;;;;4935279;29;19914;-87
2023/01/26 08:13:41;;;;;;;;;;;2.20;99.90;;;;;;4935165;29;19911;-86
2023/01/26 08:16:11;;;;;;;;;;;2.20;99.90;;;;;;4935864;29;19918;-86
2023/01/26 08:18:37;;;;;;;;;;;2.30;99.90;;;;;;4936031;29;20365;-87
2023/01/26 08:21:03;;;;;;;;;;;2.30;99.90;;;;;;4935430;29;19926;-87
2023/01/26 08:23:28;;;;;;;;;;;2.30;99.90;;;;;;4935987;29;19997;-87
2023/01/26 08:25:54;;;;;;;;;;;2.30;99.90;;;;;;4935327;29;20018;-87
2023/01/26 08:28:19;;;;;;;;;;;2.40;99.90;;;;;;4935160;29;19915;-87
2023/01/26 08:30:45;;;;;;;;;;;2.50;99.90;;;;;;4935151;29;20432;-87
2023/01/26 08:33:10;;;;;;;;;;;2.50;99.90;;;;;;4936101;29;20018;-87
2023/01/26 08:35:36;;;;;;;;;;;2.50;99.90;;;;;;4935999;29;19917;-87
2023/01/26 08:38:01;;;;;;;;;;;2.60;99.90;;;;;;4934799;29;19969;-87
2023/01/26 08:40:27;;;;;;;;;;;2.70;99.90;;;;;;4934639;29;19911;-87
2023/01/26 08:42:53;;;;;;;;;;;2.70;99.90;;;;;;4934629;29;19918;-87
2023/01/26 08:45:19;;;;;;;;;;;2.70;99.90;;;;;;4934588;29;19915;-86
2023/01/26 08:47:47;;;;;;;;;;;2.80;99.90;;;;;;4934764;29;19918;-87
2023/01/26 08:50:13;;;;;;;;;;;2.80;99.90;;;;;;4937617;29;19982;-87
2023/01/26 08:52:38;;;;;;;;;;;2.80;99.90;;;;;;4939265;29;19962;-87
2023/01/26 08:55:04;;;;;;;;;;;2.90;99.90;;;;;;4938059;29;19917;-87
2023/01/26 08:57:29;;;;;;;;;;;2.80;99.90;;;;;;4937964;29;19942;-88
2023/01/26 08:59:55;;;;;;;;;;;2.80;99.90;;;;;;4937737;29;19918;-87
2023/01/26 09:02:20;;;;;;;;;;;2.80;99.90;;;;;;4938761;29;20001;-86
2023/01/26 09:04:46;;;;;;;;;;;2.80;99.90;;;;;;4937696;29;20345;-86
2023/01/26 09:07:11;;;;;;;;;;;2.80;99.90;;;;;;4938851;29;19911;-87
2023/01/26 09:09:37;;;;;;;;;;;2.80;99.90;;;;;;4937980;29;19915;-87
2023/01/26 09:12:03;;;;;;;;;;;2.90;99.90;;;;;;4937816;29;19921;-88
2023/01/26 09:14:28;;;;;;;;;;;2.90;99.90;;;;;;4939286;29;19915;-87
2023/01/26 09:16:54;;;;;;;;;;;2.80;99.90;;;;;;4937639;29;20333;-86
2023/01/26 09:19:19;;;;;;;;;;;2.80;99.90;;;;;;4937378;29;19911;-86
2023/01/26 09:21:45;;;;;;;;;;;2.80;99.90;;;;;;4937249;29;20285;-86
2023/01/26 09:24:10;;;;;;;;;;;2.80;99.90;;;;;;4937117;29;20018;-86
2023/01/26 09:26:36;;;;;;;;;;;2.90;99.90;;;;;;4937478;29;19978;-87
2023/01/26 09:29:02;;;;;;;;;;;2.90;99.90;;;;;;4936964;29;19915;-87
2023/01/26 09:31:31;;;;;;;;;;;2.80;99.90;;;;;;4937851;29;19933;-87
2023/01/26 09:33:59;;;;;;;;;;;2.90;99.90;;;;;;4936992;29;19911;-86
2023/01/26 09:36:25;;;;;;;;;;;2.90;99.90;;;;;;4936857;29;19957;-85
2023/01/26 09:38:51;;;;;;;;;;;3.00;99.90;;;;;;4937896;29;20378;-86
2023/01/26 09:41:19;;;;;;;;;;;3.00;99.90;;;;;;4936895;29;20480;-87
2023/01/26 09:43:50;;;;;;;;;;;3.00;99.90;;;;;;4936444;29;19921;-87
2023/01/26 09:46:30;;;;;;;;;;;3.00;99.90;;;;;;4936361;29;19915;-86
2023/01/26 09:49:05;;;;;;;;;;;3.00;99.90;;;;;;4936343;29;20361;-87
2023/01/26 09:51:38;;;;;;;;;;;3.10;99.90;;;;;;4936406;29;19993;-88
2023/01/26 09:54:14;;;;;;;;;;;3.10;99.90;;;;;;4936713;29;19911;-87
2023/01/26 09:56:40;;;;;;;;;;;3.10;99.90;;;;;;4936188;29;19911;-86
2023/01/26 09:59:26;;;;;;;;;;;3.00;99.90;;;;;;4936239;29;19917;-85
2023/01/26 10:01:57;;;;;;;;;;;2.90;99.90;;;;;;4936031;29;20397;-87
2023/01/26 10:04:23;;;;;;;;;;;2.90;99.90;;;;;;4936426;29;19992;-85
2023/01/26 10:06:50;;;;;;;;;;;2.80;99.90;;;;;;4936806;29;20395;-85
2023/01/26 10:09:20;;;;;;;;;;;2.90;99.90;;;;;;4937486;29;19911;-86
2023/01/26 10:11:47;;;;;;;;;;;2.80;99.90;;;;;;4936062;29;19915;-86
2023/01/26 10:14:31;;;;;;;;;;;2.90;99.90;;;;;;4938963;29;19966;-87
2023/01/26 10:16:56;;;;;;;;;;;2.90;99.90;;;;;;4937541;29;19950;-86
2023/01/26 10:19:30;;;;;;;;;;;2.90;99.90;;;;;;4938552;29;19934;-86
2023/01/26 10:21:58;;;;;;;;;;;2.90;99.90;;;;;;4938680;29;19927;-86
2023/01/26 10:24:23;;;;;;;;;;;2.90;99.90;;;;;;4937368;29;19919;-87
2023/01/26 10:26:51;;;;;;;;;;;2.80;99.90;;;;;;4939538;29;19918;-87
2023/01/26 10:29:16;;;;;;;;;;;2.90;99.90;;;;;;4946894;29;19954;-85
2023/01/26 10:31:42;;;;;;;;;;;3.00;99.90;;;;;;4944629;29;20356;-85
2023/01/26 10:34:16;;;;;;;;;;;3.00;99.90;;;;;;4953944;28;20447;-85
2023/01/26 10:36:44;;;;;;;;;;;3.00;99.90;;;;;;4937534;29;19962;-84
2023/01/26 10:39:11;;;;;;;;;;;3.10;99.90;;;;;;4954259;28;19911;-85
2023/01/26 10:41:38;;;;;;;;;;;3.20;99.90;;;;;;4952204;28;19911;-86
2023/01/26 10:44:10;;;;;;;;;;;3.20;99.90;;;;;;4952796;28;19950;-87
2023/01/26 10:46:40;;;;;;;;;;;3.30;99.90;;;;;;4936344;29;19911;-86
2023/01/26 10:49:08;;;;;;;;;;;3.30;99.90;;;;;;4952902;28;20010;-86
2023/01/26 10:51:35;;;;;;;;;;;3.40;99.90;;;;;;4936085;29;19911;-86
2023/01/26 10:54:32;;;;;;;;;;;3.40;99.90;;;;;;4938039;29;20288;-86
2023/01/26 10:56:59;;;;;;;;;;;3.40;99.90;;;;;;4945915;29;20325;-85
2023/01/26 10:59:27;;;;;;;;;;;3.30;99.90;;;;;;4951446;28;19915;-85
2023/01/26 11:01:54;;;;;;;;;;;3.30;99.90;;;;;;4935333;29;19915;-85
2023/01/26 11:04:20;;;;;;;;;;;3.30;99.90;;;;;;4952057;28;19922;-85
2023/01/26 11:06:46;;;;;;;;;;;3.30;99.90;;;;;;4951380;28;19911;-86
2023/01/26 11:09:14;;;;;;;;;;;3.20;99.90;;;;;;4951360;28;20328;-82
2023/01/26 11:11:40;;;;;;;;;;;3.20;99.90;;;;;;4936592;29;19923;-86
2023/01/26 11:14:09;;;;;;;;;;;3.20;99.90;;;;;;4936090;29;19917;-85
2023/01/26 11:16:34;;;;;;;;;;;3.20;99.90;;;;;;4935260;29;20284;-85
2023/01/26 11:19:11;;;;;;;;;;;3.10;99.90;;;;;;4936452;29;19918;-86
2023/01/26 11:21:39;;;;;;;;;;;3.20;99.90;;;;;;4951538;28;19962;-86
2023/01/26 11:24:08;;;;;;;;;;;3.20;99.90;;;;;;4936196;29;19915;-86
2023/01/26 11:26:36;;;;;;;;;;;3.20;99.90;;;;;;4936323;29;19914;-84
2023/01/26 11:29:02;;;;;;;;;;;3.20;99.90;;;;;;4935323;29;19998;-84
2023/01/26 11:31:38;;;;;;;;;;;3.20;99.90;;;;;;4934955;29;19911;-85
2023/01/26 11:34:13;;;;;;;;;;;3.20;99.90;;;;;;4935915;29;19918;-85
2023/01/26 11:36:57;;;;;;;;;;;3.10;99.90;;;;;;4935125;29;19946;-85
2023/01/26 11:39:41;;;;;;;;;;;3.10;99.90;;;;;;4935002;29;19974;-85
2023/01/26 11:42:25;;;;;;;;;;;3.10;99.90;;;;;;4937045;29;20002;-85
2023/01/26 11:45:10;;;;;;;;;;;3.20;99.90;;;;;;4936305;29;19922;-85
2023/01/26 11:47:54;;;;;;;;;;;3.20;99.90;;;;;;4935114;29;20257;-84
2023/01/26 11:50:23;;;;;;;;;;;3.20;99.90;;;;;;4935565;29;20031;-85
2023/01/26 11:52:54;;;;;;;;;;;3.20;99.90;;;;;;4951402;28;19918;-85
2023/01/26 11:55:20;;;;;;;;;;;3.20;99.90;;;;;;4935188;29;19911;-84
2023/01/26 11:57:51;;;;;;;;;;;3.00;99.90;;;;;;4935512;29;20271;-85
2023/01/26 12:00:20;;;;;;;;;;;3.10;99.90;;;;;;4935481;29;19911;-84
2023/01/26 12:02:50;;;;;;;;;;;3.10;99.90;;;;;;4951473;28;19914;-85
2023/01/26 12:05:21;;;;;;;;;;;3.20;99.90;;;;;;4952785;28;19938;-84
2023/01/26 12:07:53;;;;;;;;;;;3.20;99.90;;;;;;4937310;29;19931;-85
2023/01/26 12:10:21;;;;;;;;;;;3.10;99.90;;;;;;4950607;28;20005;-85
2023/01/26 12:12:50;;;;;;;;;;;3.00;99.90;;;;;;4936793;29;20372;-85
2023/01/26 12:15:22;;;;;;;;;;;3.10;99.90;;;;;;4951768;28;19918;-85
2023/01/26 12:18:08;;;;;;;;;;;3.00;99.90;;;;;;4937806;29;19997;-85
2023/01/26 12:20:39;;;;;;;;;;;3.10;99.90;;;;;;4929290;29;20527;-88
2023/01/26 12:23:09;;;;;;;;;;;3.00;99.90;;;;;;4949862;28;20379;-84
2023/01/26 12:25:36;;;;;;;;;;;3.10;99.90;;;;;;4950318;28;19962;-84
2023/01/26 12:28:20;;;;;;;;;;;3.10;99.90;;;;;;4957687;29;19911;-84
2023/01/26 12:30:51;;;;;;;;;;;3.10;99.90;;;;;;4957029;28;20584;-83
2023/01/26 12:33:17;;;;;;;;;;;3.20;99.90;;;;;;4958640;29;19917;-85
2023/01/26 12:35:49;;;;;;;;;;;3.20;99.90;;;;;;4959214;28;19914;-84
2023/01/26 12:38:21;;;;;;;;;;;3.20;99.90;;;;;;4957626;28;19914;-83
2023/01/26 12:41:05;;;;;;;;;;;3.20;99.90;;;;;;4956722;28;19918;-83
2023/01/26 12:43:37;;;;;;;;;;;3.30;99.90;;;;;;4956798;28;20443;-83
2023/01/26 12:46:04;;;;;;;;;;;3.30;99.90;;;;;;4956930;29;19911;-83
2023/01/26 12:49:09;;;;;;;;;;;3.40;99.90;;;;;;4957379;29;19910;-84
2023/01/26 12:51:38;;;;;;;;;;;3.40;99.90;;;;;;4920830;29;19914;-83
2023/01/26 12:54:15;;;;;;;;;;;3.30;99.90;;;;;;4921042;29;19953;-86
2023/01/26 12:56:52;;;;;;;;;;;3.40;99.90;;;;;;4940151;29;19910;-84
2023/01/26 12:59:27;;;;;;;;;;;3.40;99.90;;;;;;4958229;28;20265;-85
2023/01/26 13:01:52;;;;;;;;;;;3.40;99.90;;;;;;4956152;29;19914;-84
2023/01/26 13:04:18;;;;;;;;;;;3.40;99.90;;;;;;4956914;29;19929;-85
2023/01/26 13:06:43;;;;;;;;;;;3.50;99.90;;;;;;4957568;28;19925;-83
2023/01/26 13:09:14;;;;;;;;;;;3.50;99.90;;;;;;4957981;28;19911;-84
2023/01/26 13:11:43;;;;;;;;;;;3.50;99.90;;;;;;4950617;28;19966;-85
2023/01/26 13:14:27;;;;;;;;;;;3.60;99.90;;;;;;4953198;29;20559;-86
2023/01/26 13:16:53;;;;;;;;;;;3.50;99.90;;;;;;4943863;29;19925;-85
2023/01/26 13:19:37;;;;;;;;;;;3.40;99.90;;;;;;4956459;28;20529;-84
2023/01/26 13:22:02;;;;;;;;;;;3.50;99.90;;;;;;4956436;28;19918;-85
2023/01/26 13:24:28;;;;;;;;;;;3.50;99.90;;;;;;4956226;29;19964;-83
2023/01/26 13:26:57;;;;;;;;;;;3.50;99.90;;;;;;4957783;28;19918;-84
2023/01/26 13:29:26;;;;;;;;;;;3.40;99.90;;;;;;4956906;28;19911;-84
2023/01/26 13:31:55;;;;;;;;;;;3.30;99.90;;;;;;4958155;29;19911;-84
2023/01/26 13:34:24;;;;;;;;;;;3.30;99.90;;;;;;4958088;28;20369;-86
2023/01/26 13:36:51;;;;;;;;;;;3.30;99.90;;;;;;4955636;28;19910;-85
2023/01/26 13:39:27;;;;;;;;;;;3.30;99.90;;;;;;4954838;28;19910;-85
2023/01/26 13:41:53;;;;;;;;;;;3.30;99.90;;;;;;4955240;29;20273;-86
2023/01/26 13:44:20;;;;;;;;;;;3.20;99.90;;;;;;4955384;29;19919;-84
2023/01/26 13:46:51;;;;;;;;;;;3.20;99.90;;;;;;4955104;29;20345;-83
2023/01/26 13:49:24;;;;;;;;;;;3.30;99.90;;;;;;4956380;28;19977;-85
2023/01/26 13:51:50;;;;;;;;;;;3.30;99.90;;;;;;4955056;29;19938;-83
2023/01/26 13:54:16;;;;;;;;;;;3.30;99.90;;;;;;4955360;29;19910;-84
2023/01/26 13:57:02;;;;;;;;;;;3.30;99.90;;;;;;4955000;29;19919;-83
2023/01/26 13:59:28;;;;;;;;;;;3.20;99.90;;;;;;4954705;28;20012;-84
2023/01/26 14:01:54;;;;;;;;;;;3.30;99.90;;;;;;4954360;29;19945;-84
2023/01/26 14:04:21;;;;;;;;;;;3.40;99.90;;;;;;4956354;28;19988;-86
2023/01/26 14:07:02;;;;;;;;;;;3.40;99.90;;;;;;4954858;29;19911;-85
2023/01/26 14:09:30;;;;;;;;;;;3.40;99.90;;;;;;4954482;28;19997;-85
2023/01/26 14:11:58;;;;;;;;;;;3.40;99.90;;;;;;4955953;28;19914;-85
2023/01/26 14:14:25;;;;;;;;;;;3.50;99.90;;;;;;4955849;28;19921;-84
2023/01/26 14:16:51;;;;;;;;;;;3.50;99.90;;;;;;4954902;29;19910;-84
2023/01/26 14:19:18;;;;;;;;;;;3.40;99.90;;;;;;4955082;28;20374;-83
2023/01/26 14:21:54;;;;;;;;;;;3.50;99.90;;;;;;4956294;28;20041;-85
2023/01/26 14:24:24;;;;;;;;;;;3.50;99.90;;;;;;4955125;29;19921;-84
2023/01/26 14:26:50;;;;;;;;;;;3.60;99.90;;;;;;4954624;29;19917;-87
2023/01/26 14:29:26;;;;;;;;;;;3.60;99.90;;;;;;4954901;28;19910;-85
2023/01/26 14:31:52;;;;;;;;;;;3.60;99.90;;;;;;4954439;29;20292;-85
2023/01/26 14:34:20;;;;;;;;;;;3.70;99.90;;;;;;4954952;28;20277;-84
2023/01/26 14:36:45;;;;;;;;;;;3.70;99.90;;;;;;4954439;28;20381;-83
2023/01/26 14:39:15;;;;;;;;;;;3.60;99.90;;;;;;4954038;28;19932;-85
2023/01/26 14:41:41;;;;;;;;;;;3.60;99.90;;;;;;4939750;28;19954;-84
2023/01/26 14:44:07;;;;;;;;;;;3.60;99.90;;;;;;4947946;29;19915;-84
2023/01/26 14:46:43;;;;;;;;;;;3.60;99.90;;;;;;4916513;29;19937;-83
2023/01/26 14:49:15;;;;;;;;;;;3.60;99.90;;;;;;4917091;29;19978;-84
2023/01/26 14:51:42;;;;;;;;;;;3.50;99.90;;;;;;4917801;29;19911;-83
2023/01/26 14:54:17;;;;;;;;;;;3.60;99.90;;;;;;4951524;28;19917;-83
2023/01/26 14:56:44;;;;;;;;;;;3.60;99.90;;;;;;4951123;29;20345;-84
2023/01/26 14:59:17;;;;;;;;;;;3.60;99.90;;;;;;4951140;28;19918;-83
2023/01/26 15:01:43;;;;;;;;;;;3.60;99.90;;;;;;4950619;28;19922;-83
2023/01/26 15:04:22;;;;;;;;;;;3.60;99.90;;;;;;4935903;29;19915;-83
2023/01/26 15:06:48;;;;;;;;;;;3.60;99.90;;;;;;4936303;29;19962;-82
2023/01/26 15:09:21;;;;;;;;;;;3.70;99.90;;;;;;4950781;28;19911;-83
2023/01/26 15:14:43;;;;;;;;;;;3.70;99.90;;;;;;4936278;29;19918;-83
2023/01/26 15:17:28;;;;;;;;;;;3.70;99.90;;;;;;4934519;29;19911;-83
2023/01/26 15:19:54;;;;;;;;;;;3.60;99.90;;;;;;4936197;29;20364;-84
2023/01/26 15:22:24;;;;;;;;;;;3.70;99.90;;;;;;4950693;28;19917;-83